sensor_id;sensor_type;location;lat;lon;timestamp;P1;durP1;ratioP1;P2;durP2;ratioP2
52934;SDS011;38802;50.198;19.796;2023-02-21T00:02:58;4.20;;;3.00;;
52934;SDS011;38802;50.198;19.796;2023-02-21T00:05:45;2.60;;;2.40;;
52934;SDS011;38802;50.198;19.796;2023-02-21T00:08:31;4.00;;;2.60;;
52934;SDS011;38802;50.198;19.796;2023-02-21T00:11:18;4.40;;;2.80;;
52934;SDS011;38802;50.198;19.796;2023-02-21T00:14:05;6.00;;;2.80;;
52934;SDS011;38802;50.198;19.796;2023-02-21T00:16:52;4.70;;;2.20;;
52934;SDS011;38802;50.198;19.796;2023-02-21T00:19:39;3.40;;;2.50;;
52934;SDS011;38802;50.198;19.796;2023-02-21T00:22:26;3.20;;;2.50;;
52934;SDS011;38802;50.198;19.796;2023-02-21T00:25:13;3.40;;;2.50;;
52934;SDS011;38802;50.198;19.796;2023-02-21T00:28:00;2.50;;;2.20;;
52934;SDS011;38802;50.198;19.796;2023-02-21T00:30:47;3.10;;;2.90;;
52934;SDS011;38802;50.198;19.796;2023-02-21T00:33:35;3.80;;;2.40;;
52934;SDS011;38802;50.198;19.796;2023-02-21T00:36:22;3.30;;;2.40;;
52934;SDS011;38802;50.198;19.796;2023-02-21T00:39:09;4.90;;;2.10;;
52934;SDS011;38802;50.198;19.796;2023-02-21T00:41:56;2.90;;;2.60;;
52934;SDS011;38802;50.198;19.796;2023-02-21T00:44:42;4.20;;;2.20;;
52934;SDS011;38802;50.198;19.796;2023-02-21T00:47:29;3.30;;;2.30;;
52934;SDS011;38802;50.198;19.796;2023-02-21T00:50:16;7.00;;;2.80;;
52934;SDS011;38802;50.198;19.796;2023-02-21T00:53:02;7.00;;;2.20;;
52934;SDS011;38802;50.198;19.796;2023-02-21T00:55:49;2.40;;;2.10;;
52934;SDS011;38802;50.198;19.796;2023-02-21T01:01:22;3.50;;;2.10;;
52934;SDS011;38802;50.198;19.796;2023-02-21T01:04:09;2.00;;;1.60;;
52934;SDS011;38802;50.198;19.796;2023-02-21T01:06:55;5.50;;;1.90;;
52934;SDS011;38802;50.198;19.796;2023-02-21T01:09:42;3.00;;;1.90;;
52934;SDS011;38802;50.198;19.796;2023-02-21T01:15:17;2.80;;;1.60;;
52934;SDS011;38802;50.198;19.796;2023-02-21T01:18:04;1.90;;;1.70;;
52934;SDS011;38802;50.198;19.796;2023-02-21T01:20:50;1.70;;;1.60;;
52934;SDS011;38802;50.198;19.796;2023-02-21T01:26:24;2.70;;;1.40;;
52934;SDS011;38802;50.198;19.796;2023-02-21T01:29:10;2.80;;;1.80;;
52934;SDS011;38802;50.198;19.796;2023-02-21T01:31:59;2.00;;;1.20;;
52934;SDS011;38802;50.198;19.796;2023-02-21T01:34:47;1.50;;;1.40;;
52934;SDS011;38802;50.198;19.796;2023-02-21T01:37:34;2.40;;;1.20;;
52934;SDS011;38802;50.198;19.796;2023-02-21T01:40:21;1.50;;;1.10;;
52934;SDS011;38802;50.198;19.796;2023-02-21T01:43:12;1.60;;;1.30;;
52934;SDS011;38802;50.198;19.796;2023-02-21T01:46:01;1.40;;;1.30;;
52934;SDS011;38802;50.198;19.796;2023-02-21T01:48:48;2.10;;;1.50;;
52934;SDS011;38802;50.198;19.796;2023-02-21T01:51:38;1.40;;;1.30;;
52934;SDS011;38802;50.198;19.796;2023-02-21T01:54:26;1.70;;;1.40;;
52934;SDS011;38802;50.198;19.796;2023-02-21T01:57:18;3.00;;;1.70;;
52934;SDS011;38802;50.198;19.796;2023-02-21T02:00:07;2.30;;;1.50;;
52934;SDS011;38802;50.198;19.796;2023-02-21T02:05:48;1.60;;;1.50;;
52934;SDS011;38802;50.198;19.796;2023-02-21T02:08:39;3.10;;;1.70;;
52934;SDS011;38802;50.198;19.796;2023-02-21T02:17:37;1.50;;;1.40;;
52934;SDS011;38802;50.198;19.796;2023-02-21T02:23:13;1.60;;;1.50;;
52934;SDS011;38802;50.198;19.796;2023-02-21T02:25:59;2.10;;;1.60;;
52934;SDS011;38802;50.198;19.796;2023-02-21T02:34:38;1.80;;;1.70;;
52934;SDS011;38802;50.198;19.796;2023-02-21T02:37:22;2.20;;;1.70;;
52934;SDS011;38802;50.198;19.796;2023-02-21T02:43:15;2.10;;;1.90;;
52934;SDS011;38802;50.198;19.796;2023-02-21T02:49:09;2.80;;;1.80;;
52934;SDS011;38802;50.198;19.796;2023-02-21T02:51:43;2.70;;;2.10;;
52934;SDS011;38802;50.198;19.796;2023-02-21T02:54:11;2.80;;;2.10;;
52934;SDS011;38802;50.198;19.796;2023-02-21T02:56:40;2.60;;;2.40;;
52934;SDS011;38802;50.198;19.796;2023-02-21T02:59:21;2.50;;;2.30;;
52934;SDS011;38802;50.198;19.796;2023-02-21T03:10:27;3.50;;;3.20;;
52934;SDS011;38802;50.198;19.796;2023-02-21T03:13:17;4.30;;;3.80;;
52934;SDS011;38802;50.198;19.796;2023-02-21T03:15:55;3.50;;;3.20;;
52934;SDS011;38802;50.198;19.796;2023-02-21T03:18:35;4.20;;;3.20;;
52934;SDS011;38802;50.198;19.796;2023-02-21T03:21:10;3.00;;;2.80;;
52934;SDS011;38802;50.198;19.796;2023-02-21T03:23:44;2.70;;;2.40;;
52934;SDS011;38802;50.198;19.796;2023-02-21T03:26:15;2.30;;;2.10;;
52934;SDS011;38802;50.198;19.796;2023-02-21T03:28:47;2.50;;;2.30;;
52934;SDS011;38802;50.198;19.796;2023-02-21T03:31:18;2.40;;;2.20;;
52934;SDS011;38802;50.198;19.796;2023-02-21T03:33:51;2.20;;;1.90;;
52934;SDS011;38802;50.198;19.796;2023-02-21T03:36:20;2.10;;;1.90;;
52934;SDS011;38802;50.198;19.796;2023-02-21T03:38:49;1.90;;;1.80;;
52934;SDS011;38802;50.198;19.796;2023-02-21T03:41:17;1.90;;;1.80;;
52934;SDS011;38802;50.198;19.796;2023-02-21T03:43:46;3.10;;;1.60;;
52934;SDS011;38802;50.198;19.796;2023-02-21T03:46:14;1.70;;;1.60;;
52934;SDS011;38802;50.198;19.796;2023-02-21T03:48:42;2.40;;;2.10;;
52934;SDS011;38802;50.198;19.796;2023-02-21T03:51:19;2.60;;;2.10;;
52934;SDS011;38802;50.198;19.796;2023-02-21T03:53:47;2.50;;;2.30;;
52934;SDS011;38802;50.198;19.796;2023-02-21T03:56:17;2.40;;;2.30;;
52934;SDS011;38802;50.198;19.796;2023-02-21T03:59:04;3.20;;;2.90;;
52934;SDS011;38802;50.198;19.796;2023-02-21T04:01:32;3.20;;;2.80;;
52934;SDS011;38802;50.198;19.796;2023-02-21T04:04:01;3.40;;;3.20;;
52934;SDS011;38802;50.198;19.796;2023-02-21T04:06:29;4.10;;;3.90;;
52934;SDS011;38802;50.198;19.796;2023-02-21T04:08:58;4.20;;;3.90;;
52934;SDS011;38802;50.198;19.796;2023-02-21T04:11:26;3.90;;;3.70;;
52934;SDS011;38802;50.198;19.796;2023-02-21T04:13:55;3.80;;;3.50;;
52934;SDS011;38802;50.198;19.796;2023-02-21T04:16:23;3.70;;;3.40;;
52934;SDS011;38802;50.198;19.796;2023-02-21T04:18:52;3.20;;;3.00;;
52934;SDS011;38802;50.198;19.796;2023-02-21T04:21:20;3.90;;;3.60;;
52934;SDS011;38802;50.198;19.796;2023-02-21T04:23:50;3.40;;;3.10;;
52934;SDS011;38802;50.198;19.796;2023-02-21T04:26:18;2.70;;;2.50;;
52934;SDS011;38802;50.198;19.796;2023-02-21T04:28:50;3.10;;;2.90;;
52934;SDS011;38802;50.198;19.796;2023-02-21T04:31:18;3.20;;;2.20;;
52934;SDS011;38802;50.198;19.796;2023-02-21T04:33:47;2.00;;;1.90;;
52934;SDS011;38802;50.198;19.796;2023-02-21T04:36:29;1.60;;;1.50;;
52934;SDS011;38802;50.198;19.796;2023-02-21T04:38:58;2.10;;;1.90;;
52934;SDS011;38802;50.198;19.796;2023-02-21T04:41:26;1.60;;;1.50;;
52934;SDS011;38802;50.198;19.796;2023-02-21T04:43:55;1.60;;;1.50;;
52934;SDS011;38802;50.198;19.796;2023-02-21T04:46:23;1.80;;;1.70;;
52934;SDS011;38802;50.198;19.796;2023-02-21T04:48:51;1.40;;;1.30;;
52934;SDS011;38802;50.198;19.796;2023-02-21T04:51:21;1.60;;;1.50;;
52934;SDS011;38802;50.198;19.796;2023-02-21T04:53:51;1.80;;;1.70;;
52934;SDS011;38802;50.198;19.796;2023-02-21T04:56:21;1.50;;;1.40;;
52934;SDS011;38802;50.198;19.796;2023-02-21T04:58:52;1.40;;;1.30;;
52934;SDS011;38802;50.198;19.796;2023-02-21T05:01:20;1.20;;;1.10;;
52934;SDS011;38802;50.198;19.796;2023-02-21T05:03:49;1.30;;;1.50;;
52934;SDS011;38802;50.198;19.796;2023-02-21T05:06:24;1.30;;;1.20;;
52934;SDS011;38802;50.198;19.796;2023-02-21T05:08:54;2.80;;;1.70;;
52934;SDS011;38802;50.198;19.796;2023-02-21T05:11:23;1.30;;;1.20;;
52934;SDS011;38802;50.198;19.796;2023-02-21T05:13:51;1.40;;;1.10;;
52934;SDS011;38802;50.198;19.796;2023-02-21T05:16:20;1.50;;;1.40;;
52934;SDS011;38802;50.198;19.796;2023-02-21T05:18:48;1.00;;;1.00;;
52934;SDS011;38802;50.198;19.796;2023-02-21T05:21:16;1.20;;;1.10;;
52934;SDS011;38802;50.198;19.796;2023-02-21T05:23:46;1.10;;;1.10;;
52934;SDS011;38802;50.198;19.796;2023-02-21T05:26:24;1.30;;;1.20;;
52934;SDS011;38802;50.198;19.796;2023-02-21T05:28:57;2.60;;;1.60;;
52934;SDS011;38802;50.198;19.796;2023-02-21T05:31:25;1.60;;;1.50;;
52934;SDS011;38802;50.198;19.796;2023-02-21T05:33:54;1.40;;;1.30;;
52934;SDS011;38802;50.198;19.796;2023-02-21T05:36:22;1.40;;;1.20;;
52934;SDS011;38802;50.198;19.796;2023-02-21T05:38:54;1.70;;;1.60;;
52934;SDS011;38802;50.198;19.796;2023-02-21T05:41:22;1.10;;;1.10;;
52934;SDS011;38802;50.198;19.796;2023-02-21T05:43:51;1.60;;;1.40;;
52934;SDS011;38802;50.198;19.796;2023-02-21T05:48:53;2.10;;;1.80;;
52934;SDS011;38802;50.198;19.796;2023-02-21T05:51:22;2.90;;;2.70;;
52934;SDS011;38802;50.198;19.796;2023-02-21T05:53:50;2.20;;;2.00;;
52934;SDS011;38802;50.198;19.796;2023-02-21T05:56:19;2.20;;;2.00;;
52934;SDS011;38802;50.198;19.796;2023-02-21T05:58:48;2.40;;;2.20;;
52934;SDS011;38802;50.198;19.796;2023-02-21T06:01:16;3.50;;;2.50;;
52934;SDS011;38802;50.198;19.796;2023-02-21T06:03:44;2.50;;;2.30;;
52934;SDS011;38802;50.198;19.796;2023-02-21T06:06:13;2.80;;;2.60;;
52934;SDS011;38802;50.198;19.796;2023-02-21T06:08:46;3.00;;;2.60;;
52934;SDS011;38802;50.198;19.796;2023-02-21T06:11:21;2.20;;;2.10;;
52934;SDS011;38802;50.198;19.796;2023-02-21T06:13:51;2.90;;;2.80;;
52934;SDS011;38802;50.198;19.796;2023-02-21T06:16:20;3.00;;;2.70;;
52934;SDS011;38802;50.198;19.796;2023-02-21T06:18:48;3.30;;;3.00;;
52934;SDS011;38802;50.198;19.796;2023-02-21T06:21:21;2.60;;;2.40;;
52934;SDS011;38802;50.198;19.796;2023-02-21T06:23:50;3.20;;;2.90;;
52934;SDS011;38802;50.198;19.796;2023-02-21T06:26:18;2.70;;;2.60;;
52934;SDS011;38802;50.198;19.796;2023-02-21T06:28:47;3.10;;;2.50;;
52934;SDS011;38802;50.198;19.796;2023-02-21T06:31:16;2.80;;;2.60;;
52934;SDS011;38802;50.198;19.796;2023-02-21T06:33:46;3.00;;;2.80;;
52934;SDS011;38802;50.198;19.796;2023-02-21T06:36:20;3.40;;;3.10;;
52934;SDS011;38802;50.198;19.796;2023-02-21T06:38:50;2.90;;;2.70;;
52934;SDS011;38802;50.198;19.796;2023-02-21T06:41:22;3.20;;;2.80;;
52934;SDS011;38802;50.198;19.796;2023-02-21T06:43:52;2.70;;;2.50;;
52934;SDS011;38802;50.198;19.796;2023-02-21T06:46:22;2.60;;;2.40;;
52934;SDS011;38802;50.198;19.796;2023-02-21T06:48:53;2.70;;;2.50;;
52934;SDS011;38802;50.198;19.796;2023-02-21T06:51:21;2.90;;;2.70;;
52934;SDS011;38802;50.198;19.796;2023-02-21T06:53:56;3.60;;;3.00;;
52934;SDS011;38802;50.198;19.796;2023-02-21T06:56:25;2.80;;;2.60;;
52934;SDS011;38802;50.198;19.796;2023-02-21T06:58:54;3.10;;;2.90;;
52934;SDS011;38802;50.198;19.796;2023-02-21T07:01:23;3.10;;;2.90;;
52934;SDS011;38802;50.198;19.796;2023-02-21T07:03:55;3.60;;;3.40;;
52934;SDS011;38802;50.198;19.796;2023-02-21T07:06:24;4.60;;;4.30;;
52934;SDS011;38802;50.198;19.796;2023-02-21T07:08:56;3.30;;;3.00;;
52934;SDS011;38802;50.198;19.796;2023-02-21T07:11:24;3.70;;;3.40;;
52934;SDS011;38802;50.198;19.796;2023-02-21T07:13:52;2.70;;;2.50;;
52934;SDS011;38802;50.198;19.796;2023-02-21T07:16:23;3.30;;;3.00;;
52934;SDS011;38802;50.198;19.796;2023-02-21T07:18:51;2.80;;;2.60;;
52934;SDS011;38802;50.198;19.796;2023-02-21T07:21:20;2.80;;;2.50;;
52934;SDS011;38802;50.198;19.796;2023-02-21T07:23:49;3.00;;;2.70;;
52934;SDS011;38802;50.198;19.796;2023-02-21T07:26:17;3.80;;;2.90;;
52934;SDS011;38802;50.198;19.796;2023-02-21T07:28:48;3.50;;;3.30;;
52934;SDS011;38802;50.198;19.796;2023-02-21T07:31:17;3.10;;;2.90;;
52934;SDS011;38802;50.198;19.796;2023-02-21T07:33:47;3.40;;;3.20;;
52934;SDS011;38802;50.198;19.796;2023-02-21T07:36:15;3.60;;;3.30;;
52934;SDS011;38802;50.198;19.796;2023-02-21T07:38:44;3.40;;;3.20;;
52934;SDS011;38802;50.198;19.796;2023-02-21T07:41:12;3.40;;;3.20;;
52934;SDS011;38802;50.198;19.796;2023-02-21T07:43:45;3.60;;;3.30;;
52934;SDS011;38802;50.198;19.796;2023-02-21T07:46:13;4.10;;;3.80;;
52934;SDS011;38802;50.198;19.796;2023-02-21T07:48:44;2.80;;;2.70;;
52934;SDS011;38802;50.198;19.796;2023-02-21T07:51:12;3.30;;;3.10;;
52934;SDS011;38802;50.198;19.796;2023-02-21T07:53:41;3.30;;;3.10;;
52934;SDS011;38802;50.198;19.796;2023-02-21T07:56:09;3.70;;;3.50;;
52934;SDS011;38802;50.198;19.796;2023-02-21T07:58:37;4.40;;;4.10;;
52934;SDS011;38802;50.198;19.796;2023-02-21T08:01:06;3.40;;;3.20;;
52934;SDS011;38802;50.198;19.796;2023-02-21T08:03:34;3.70;;;3.40;;
52934;SDS011;38802;50.198;19.796;2023-02-21T08:06:04;3.90;;;3.60;;
52934;SDS011;38802;50.198;19.796;2023-02-21T08:08:32;3.70;;;3.40;;
52934;SDS011;38802;50.198;19.796;2023-02-21T08:11:00;4.00;;;3.70;;
52934;SDS011;38802;50.198;19.796;2023-02-21T08:13:29;4.60;;;4.20;;
52934;SDS011;38802;50.198;19.796;2023-02-21T08:15:57;4.80;;;4.40;;
52934;SDS011;38802;50.198;19.796;2023-02-21T08:18:25;4.20;;;3.90;;
52934;SDS011;38802;50.198;19.796;2023-02-21T08:20:53;5.10;;;4.50;;
52934;SDS011;38802;50.198;19.796;2023-02-21T08:23:24;5.80;;;4.40;;
52934;SDS011;38802;50.198;19.796;2023-02-21T08:25:52;4.70;;;4.20;;
52934;SDS011;38802;50.198;19.796;2023-02-21T08:28:20;6.20;;;5.80;;
52934;SDS011;38802;50.198;19.796;2023-02-21T08:30:48;4.90;;;4.50;;
52934;SDS011;38802;50.198;19.796;2023-02-21T08:33:16;4.80;;;4.40;;
52934;SDS011;38802;50.198;19.796;2023-02-21T08:35:44;5.10;;;4.70;;
52934;SDS011;38802;50.198;19.796;2023-02-21T08:38:12;4.80;;;4.40;;
52934;SDS011;38802;50.198;19.796;2023-02-21T08:40:41;6.10;;;5.40;;
52934;SDS011;38802;50.198;19.796;2023-02-21T08:43:09;4.90;;;4.50;;
52934;SDS011;38802;50.198;19.796;2023-02-21T08:45:36;6.20;;;5.00;;
52934;SDS011;38802;50.198;19.796;2023-02-21T08:48:05;6.20;;;5.70;;
52934;SDS011;38802;50.198;19.796;2023-02-21T08:50:33;5.70;;;5.20;;
52934;SDS011;38802;50.198;19.796;2023-02-21T08:53:01;4.50;;;4.20;;
52934;SDS011;38802;50.198;19.796;2023-02-21T08:55:29;4.40;;;4.00;;
52934;SDS011;38802;50.198;19.796;2023-02-21T08:57:57;4.30;;;4.00;;
52934;SDS011;38802;50.198;19.796;2023-02-21T09:00:25;4.50;;;3.70;;
52934;SDS011;38802;50.198;19.796;2023-02-21T09:02:56;5.00;;;4.60;;
52934;SDS011;38802;50.198;19.796;2023-02-21T09:05:27;4.70;;;4.30;;
52934;SDS011;38802;50.198;19.796;2023-02-21T09:07:58;4.70;;;4.30;;
52934;SDS011;38802;50.198;19.796;2023-02-21T09:10:29;3.90;;;3.50;;
52934;SDS011;38802;50.198;19.796;2023-02-21T09:13:01;2.80;;;2.60;;
52934;SDS011;38802;50.198;19.796;2023-02-21T09:15:30;3.90;;;3.60;;
52934;SDS011;38802;50.198;19.796;2023-02-21T09:17:59;2.80;;;2.60;;
52934;SDS011;38802;50.198;19.796;2023-02-21T09:20:27;4.10;;;3.80;;
52934;SDS011;38802;50.198;19.796;2023-02-21T09:22:56;3.20;;;3.00;;
52934;SDS011;38802;50.198;19.796;2023-02-21T09:25:24;3.70;;;3.30;;
52934;SDS011;38802;50.198;19.796;2023-02-21T09:27:53;3.70;;;2.70;;
52934;SDS011;38802;50.198;19.796;2023-02-21T09:30:23;2.90;;;2.70;;
52934;SDS011;38802;50.198;19.796;2023-02-21T09:32:54;3.10;;;2.80;;
52934;SDS011;38802;50.198;19.796;2023-02-21T09:35:23;3.40;;;3.10;;
52934;SDS011;38802;50.198;19.796;2023-02-21T09:37:51;3.70;;;3.40;;
52934;SDS011;38802;50.198;19.796;2023-02-21T09:42:51;4.60;;;3.70;;
52934;SDS011;38802;50.198;19.796;2023-02-21T09:45:21;3.10;;;2.90;;
52934;SDS011;38802;50.198;19.796;2023-02-21T09:47:52;4.40;;;3.20;;
52934;SDS011;38802;50.198;19.796;2023-02-21T09:50:24;2.70;;;2.20;;
52934;SDS011;38802;50.198;19.796;2023-02-21T09:52:57;3.10;;;2.60;;
52934;SDS011;38802;50.198;19.796;2023-02-21T09:57:57;6.70;;;3.20;;
52934;SDS011;38802;50.198;19.796;2023-02-21T10:00:28;3.30;;;3.00;;
52934;SDS011;38802;50.198;19.796;2023-02-21T10:06:19;4.20;;;3.90;;
52934;SDS011;38802;50.198;19.796;2023-02-21T10:11:53;3.40;;;3.10;;
52934;SDS011;38802;50.198;19.796;2023-02-21T10:14:54;3.60;;;3.30;;
52934;SDS011;38802;50.198;19.796;2023-02-21T10:17:47;3.30;;;3.00;;
52934;SDS011;38802;50.198;19.796;2023-02-21T10:23:39;4.20;;;2.80;;
52934;SDS011;38802;50.198;19.796;2023-02-21T10:26:22;3.20;;;2.90;;
52934;SDS011;38802;50.198;19.796;2023-02-21T10:28:53;5.00;;;2.90;;
52934;SDS011;38802;50.198;19.796;2023-02-21T10:33:57;2.90;;;2.60;;
52934;SDS011;38802;50.198;19.796;2023-02-21T10:36:26;2.70;;;2.40;;
52934;SDS011;38802;50.198;19.796;2023-02-21T10:38:56;4.00;;;2.50;;
52934;SDS011;38802;50.198;19.796;2023-02-21T10:41:30;3.00;;;2.70;;
52934;SDS011;38802;50.198;19.796;2023-02-21T10:44:16;3.10;;;2.80;;
52934;SDS011;38802;50.198;19.796;2023-02-21T10:46:51;2.70;;;2.40;;
52934;SDS011;38802;50.198;19.796;2023-02-21T10:49:45;3.10;;;2.50;;
52934;SDS011;38802;50.198;19.796;2023-02-21T10:52:19;6.10;;;3.20;;
52934;SDS011;38802;50.198;19.796;2023-02-21T10:57:41;3.20;;;2.70;;
52934;SDS011;38802;50.198;19.796;2023-02-21T11:00:22;4.50;;;2.90;;
52934;SDS011;38802;50.198;19.796;2023-02-21T11:02:53;3.00;;;2.70;;
52934;SDS011;38802;50.198;19.796;2023-02-21T11:05:24;2.80;;;2.50;;
52934;SDS011;38802;50.198;19.796;2023-02-21T11:13:05;4.20;;;2.20;;
52934;SDS011;38802;50.198;19.796;2023-02-21T11:15:40;2.30;;;2.00;;
52934;SDS011;38802;50.198;19.796;2023-02-21T11:18:22;2.80;;;2.30;;
52934;SDS011;38802;50.198;19.796;2023-02-21T11:20:52;3.90;;;2.70;;
52934;SDS011;38802;50.198;19.796;2023-02-21T11:23:24;2.90;;;2.60;;
52934;SDS011;38802;50.198;19.796;2023-02-21T11:26:09;2.30;;;2.10;;
52934;SDS011;38802;50.198;19.796;2023-02-21T11:28:40;2.00;;;1.80;;
52934;SDS011;38802;50.198;19.796;2023-02-21T11:31:44;3.30;;;1.90;;
52934;SDS011;38802;50.198;19.796;2023-02-21T11:34:05;2.60;;;2.20;;
52934;SDS011;38802;50.198;19.796;2023-02-21T11:36:36;2.50;;;2.20;;
52934;SDS011;38802;50.198;19.796;2023-02-21T11:39:17;4.00;;;2.00;;
52934;SDS011;38802;50.198;19.796;2023-02-21T11:44:22;3.70;;;2.20;;
52934;SDS011;38802;50.198;19.796;2023-02-21T11:55:27;2.20;;;2.10;;
52934;SDS011;38802;50.198;19.796;2023-02-21T12:21:20;4.50;;;3.80;;
52934;SDS011;38802;50.198;19.796;2023-02-21T12:24:00;4.40;;;3.70;;
52934;SDS011;38802;50.198;19.796;2023-02-21T12:29:14;5.60;;;4.60;;
52934;SDS011;38802;50.198;19.796;2023-02-21T12:40:27;3.00;;;2.70;;
52934;SDS011;38802;50.198;19.796;2023-02-21T12:49:02;6.10;;;4.90;;
52934;SDS011;38802;50.198;19.796;2023-02-21T12:51:39;4.80;;;4.10;;
52934;SDS011;38802;50.198;19.796;2023-02-21T12:54:23;4.80;;;4.00;;
52934;SDS011;38802;50.198;19.796;2023-02-21T12:57:07;4.70;;;3.30;;
52934;SDS011;38802;50.198;19.796;2023-02-21T13:02:49;7.40;;;3.30;;
52934;SDS011;38802;50.198;19.796;2023-02-21T13:05:40;5.20;;;3.00;;
52934;SDS011;38802;50.198;19.796;2023-02-21T13:13:29;3.30;;;3.00;;
52934;SDS011;38802;50.198;19.796;2023-02-21T13:15:59;2.90;;;2.60;;
52934;SDS011;38802;50.198;19.796;2023-02-21T13:18:34;4.60;;;2.80;;
52934;SDS011;38802;50.198;19.796;2023-02-21T13:23:45;3.10;;;2.80;;
52934;SDS011;38802;50.198;19.796;2023-02-21T13:30:02;4.30;;;3.10;;
52934;SDS011;38802;50.198;19.796;2023-02-21T13:32:49;4.20;;;2.50;;
52934;SDS011;38802;50.198;19.796;2023-02-21T13:35:25;7.90;;;3.60;;
52934;SDS011;38802;50.198;19.796;2023-02-21T13:38:05;3.20;;;2.70;;
52934;SDS011;38802;50.198;19.796;2023-02-21T13:43:30;3.30;;;2.70;;
52934;SDS011;38802;50.198;19.796;2023-02-21T14:02:59;4.20;;;2.70;;
52934;SDS011;38802;50.198;19.796;2023-02-21T14:16:49;4.20;;;3.70;;
52934;SDS011;38802;50.198;19.796;2023-02-21T14:19:24;3.70;;;3.40;;
52934;SDS011;38802;50.198;19.796;2023-02-21T14:22:17;3.80;;;3.40;;
52934;SDS011;38802;50.198;19.796;2023-02-21T14:25:04;4.40;;;3.80;;
52934;SDS011;38802;50.198;19.796;2023-02-21T14:27:37;3.60;;;2.80;;
52934;SDS011;38802;50.198;19.796;2023-02-21T14:32:40;4.20;;;3.60;;
52934;SDS011;38802;50.198;19.796;2023-02-21T14:35:34;5.80;;;4.80;;
52934;SDS011;38802;50.198;19.796;2023-02-21T14:38:05;5.80;;;4.50;;
52934;SDS011;38802;50.198;19.796;2023-02-21T14:54:23;6.30;;;7.00;;
52934;SDS011;38802;50.198;19.796;2023-02-21T15:05:39;5.30;;;4.80;;
52934;SDS011;38802;50.198;19.796;2023-02-21T15:08:21;8.60;;;6.30;;
52934;SDS011;38802;50.198;19.796;2023-02-21T15:10:55;8.40;;;6.30;;
52934;SDS011;38802;50.198;19.796;2023-02-21T15:13:28;7.90;;;5.60;;
52934;SDS011;38802;50.198;19.796;2023-02-21T15:16:02;8.80;;;5.90;;
52934;SDS011;38802;50.198;19.796;2023-02-21T15:18:38;8.90;;;6.60;;
52934;SDS011;38802;50.198;19.796;2023-02-21T15:21:21;7.60;;;5.50;;
52934;SDS011;38802;50.198;19.796;2023-02-21T15:24:10;7.60;;;4.80;;
52934;SDS011;38802;50.198;19.796;2023-02-21T15:26:40;4.70;;;3.60;;
52934;SDS011;38802;50.198;19.796;2023-02-21T15:29:10;4.10;;;3.00;;
52934;SDS011;38802;50.198;19.796;2023-02-21T15:31:44;3.30;;;2.90;;
52934;SDS011;38802;50.198;19.796;2023-02-21T15:36:48;3.30;;;3.00;;
52934;SDS011;38802;50.198;19.796;2023-02-21T15:39:28;6.70;;;3.40;;
52934;SDS011;38802;50.198;19.796;2023-02-21T15:42:00;5.10;;;4.10;;
52934;SDS011;38802;50.198;19.796;2023-02-21T15:44:31;4.30;;;3.70;;
52934;SDS011;38802;50.198;19.796;2023-02-21T15:47:21;3.80;;;3.10;;
52934;SDS011;38802;50.198;19.796;2023-02-21T15:52:43;5.60;;;3.50;;
52934;SDS011;38802;50.198;19.796;2023-02-21T15:57:55;3.50;;;3.20;;
52934;SDS011;38802;50.198;19.796;2023-02-21T16:06:36;2.20;;;2.00;;
52934;SDS011;38802;50.198;19.796;2023-02-21T16:14:40;3.80;;;1.90;;
52934;SDS011;38802;50.198;19.796;2023-02-21T16:17:28;3.90;;;3.30;;
52934;SDS011;38802;50.198;19.796;2023-02-21T16:22:40;5.10;;;4.10;;
52934;SDS011;38802;50.198;19.796;2023-02-21T16:25:29;7.70;;;5.40;;
52934;SDS011;38802;50.198;19.796;2023-02-21T16:27:58;6.50;;;4.80;;
52934;SDS011;38802;50.198;19.796;2023-02-21T16:30:27;6.20;;;4.10;;
52934;SDS011;38802;50.198;19.796;2023-02-21T16:33:02;7.10;;;5.00;;
52934;SDS011;38802;50.198;19.796;2023-02-21T16:35:30;6.00;;;4.50;;
52934;SDS011;38802;50.198;19.796;2023-02-21T16:37:58;4.30;;;3.90;;
52934;SDS011;38802;50.198;19.796;2023-02-21T16:40:28;4.60;;;3.80;;
52934;SDS011;38802;50.198;19.796;2023-02-21T16:42:59;3.90;;;3.50;;
52934;SDS011;38802;50.198;19.796;2023-02-21T16:45:28;5.30;;;4.20;;
52934;SDS011;38802;50.198;19.796;2023-02-21T16:47:57;4.50;;;3.80;;
52934;SDS011;38802;50.198;19.796;2023-02-21T16:52:53;6.20;;;4.20;;
52934;SDS011;38802;50.198;19.796;2023-02-21T16:55:20;6.90;;;4.60;;
52934;SDS011;38802;50.198;19.796;2023-02-21T16:57:47;7.50;;;4.90;;
52934;SDS011;38802;50.198;19.796;2023-02-21T17:00:16;6.70;;;5.00;;
52934;SDS011;38802;50.198;19.796;2023-02-21T17:02:47;8.90;;;5.40;;
52934;SDS011;38802;50.198;19.796;2023-02-21T17:05:15;9.30;;;5.70;;
52934;SDS011;38802;50.198;19.796;2023-02-21T17:07:46;5.80;;;5.10;;
52934;SDS011;38802;50.198;19.796;2023-02-21T17:10:15;7.30;;;6.30;;
52934;SDS011;38802;50.198;19.796;2023-02-21T17:12:45;8.80;;;7.40;;
52934;SDS011;38802;50.198;19.796;2023-02-21T17:15:13;12.60;;;8.40;;
52934;SDS011;38802;50.198;19.796;2023-02-21T17:17:40;14.60;;;7.60;;
52934;SDS011;38802;50.198;19.796;2023-02-21T17:20:14;10.80;;;6.90;;
52934;SDS011;38802;50.198;19.796;2023-02-21T17:22:42;10.00;;;7.00;;
52934;SDS011;38802;50.198;19.796;2023-02-21T17:25:09;13.70;;;7.60;;
52934;SDS011;38802;50.198;19.796;2023-02-21T17:27:36;12.70;;;8.60;;
52934;SDS011;38802;50.198;19.796;2023-02-21T17:30:04;14.50;;;9.30;;
52934;SDS011;38802;50.198;19.796;2023-02-21T17:32:31;15.30;;;9.80;;
52934;SDS011;38802;50.198;19.796;2023-02-21T17:34:58;26.10;;;10.80;;
52934;SDS011;38802;50.198;19.796;2023-02-21T17:37:25;17.50;;;8.40;;
52934;SDS011;38802;50.198;19.796;2023-02-21T17:39:53;13.40;;;7.50;;
52934;SDS011;38802;50.198;19.796;2023-02-21T17:42:20;15.00;;;7.80;;
52934;SDS011;38802;50.198;19.796;2023-02-21T17:44:48;14.20;;;6.00;;
52934;SDS011;38802;50.198;19.796;2023-02-21T17:47:17;13.40;;;5.70;;
52934;SDS011;38802;50.198;19.796;2023-02-21T17:49:46;13.60;;;5.50;;
52934;SDS011;38802;50.198;19.796;2023-02-21T17:52:14;7.90;;;4.50;;
52934;SDS011;38802;50.198;19.796;2023-02-21T17:54:41;7.90;;;4.80;;
52934;SDS011;38802;50.198;19.796;2023-02-21T17:57:09;13.30;;;8.30;;
52934;SDS011;38802;50.198;19.796;2023-02-21T17:59:36;8.80;;;4.50;;
52934;SDS011;38802;50.198;19.796;2023-02-21T18:02:04;12.30;;;4.80;;
52934;SDS011;38802;50.198;19.796;2023-02-21T18:04:33;13.90;;;5.20;;
52934;SDS011;38802;50.198;19.796;2023-02-21T18:07:00;10.40;;;5.40;;
52934;SDS011;38802;50.198;19.796;2023-02-21T18:09:27;9.80;;;5.60;;
52934;SDS011;38802;50.198;19.796;2023-02-21T18:11:54;11.30;;;4.70;;
52934;SDS011;38802;50.198;19.796;2023-02-21T18:14:24;14.70;;;6.10;;
52934;SDS011;38802;50.198;19.796;2023-02-21T18:16:55;10.00;;;6.10;;
52934;SDS011;38802;50.198;19.796;2023-02-21T18:19:23;11.60;;;6.60;;
52934;SDS011;38802;50.198;19.796;2023-02-21T18:21:50;16.90;;;7.80;;
52934;SDS011;38802;50.198;19.796;2023-02-21T18:24:17;23.70;;;9.40;;
52934;SDS011;38802;50.198;19.796;2023-02-21T18:26:45;23.20;;;9.30;;
52934;SDS011;38802;50.198;19.796;2023-02-21T18:29:12;15.20;;;7.70;;
52934;SDS011;38802;50.198;19.796;2023-02-21T18:31:39;38.40;;;15.50;;
52934;SDS011;38802;50.198;19.796;2023-02-21T18:34:05;17.30;;;7.60;;
52934;SDS011;38802;50.198;19.796;2023-02-21T18:36:32;17.00;;;8.50;;
52934;SDS011;38802;50.198;19.796;2023-02-21T18:39:01;21.80;;;10.90;;
52934;SDS011;38802;50.198;19.796;2023-02-21T18:41:28;18.70;;;11.20;;
52934;SDS011;38802;50.198;19.796;2023-02-21T18:43:59;26.40;;;11.60;;
52934;SDS011;38802;50.198;19.796;2023-02-21T18:46:25;12.70;;;7.30;;
52934;SDS011;38802;50.198;19.796;2023-02-21T18:48:52;16.10;;;7.30;;